Mansfield, IL (61854)

8:53 PM CST on February 01, 2015 (GMT -0600)
Oak Creek | Change Station
CLOSE
Current Station
Personal Weather Station
Location: Mahomet, IL
Elevation: 728 ft
Nearby Weather Stations
Active Advisory: Winter Storm Warning

Elev 728 ft 40.18 °N, 88.39 °W | Updated 3 minutes ago

Overcast
Overcast
23.7 °F
Feels Like 20 °F
N
3.1
Wind Variable Wind from SSW
Gusts 15.2 mph

Today
High -- | Low -- °F
--% Chance of Precip.
Yesterday
High -- | Low -- °F
Precip. -- in
7:03 AM 5:12 PM
Waxing Gibbous, 97% visible
Pressure 29.68 in
Visibility 9.0 miles
Clouds Overcast 1000 ft
Windchill 20 °F
Dew Point 17 °F
Humidity 74%
Rainfall 0.13 in
Snow Depth Not available.
UV 0 out of 12
Pollen .10 out of 12
Air Quality Not available.
Flu Activity Not available.
SPECI KCMI 020212Z 36019G26KT 9SM -SN OVC010 M03/M06 A2968 RMK AO2 PK WND 36026/0207 CIG 008V014 P0000 T10331056

More Conditions Fewer Conditions

Pressure 29.68 in
Visibility 9.0 miles
Clouds Overcast 1000 ft
Windchill 20 °F
Dew Point 17 °F
Humidity 74%
Rainfall 0.13 in
Snow Depth Not available.
UV 0 out of 12
Pollen .10 out of 12
Air Quality Not available.
Flu Activity Not available.
SPECI KCMI 020212Z 36019G26KT 9SM -SN OVC010 M03/M06 A2968 RMK AO2 PK WND 36026/0207 CIG 008V014 P0000 T10331056

More Conditions Fewer Conditions

10-Day Weather Forecast

Almanac

Astronomy

Feb. 01, 2015 Rise Set
Actual Time
Civil Twilight
Nautical Twilight
Astronomical Twilight
Moon
Length of Visible Light
Length of Day
Tomorrow will be .
, % of the Moon is Illuminated

Today's Extremes

State Highs State Lows

Community

WunderPhotos

Upload Photos

1,792,659 photos uploaded!

WunderBlogs® & News

Nearby

Air Quality

  Air Quality AQ Index Pollutant
Not available.

Snow Depth

Station Depth Elevation

Earthquake Activity

City Distance Mag. Time & Date
Minimum magnitude displayed is 2.5.

Coastal Water Temperatures

Place Temperature

Nearby Weather Stations